Gozo/Qala, Malta
Current Conditions -  °F | °C
As of 1:15 AM on Wednesday 28 Jan 2015 (Local Time) from LMML Reporting Station
Rain Showers Rain Showers  
Wind Chill: 50°   Ceiling: 4000
Heat Index: 50°   Visibility: 6mi
Dew Point: 46°   Wind: 8mph
Humidity: 87%   Direction: 310°NW
Pressure: 29.88"   Gusts: NA
Location:  36.05°N, 14.27°E
Report Text: LMML 272315Z AUTO 31007KT 9999NDV -SHRA FEW013/// SCT024/// BKN040/// 10/08 Q1012
Loading
Personal Weather Stations






























Interactive Weather Map New forecast layout! Learn more

10-Day Weather Forecast

Advertisements
Track Severe Weather on mobile